Terminal Aerodrome Forecast
Issued by NWS

Home | Current Version | Previous Version | Text Only | Print | Product List | Glossary On
Versions: 1 2 3 4 5 6 7 8 9 10 11 12 13 14 15
000
FTUS46 KPDT 271720
TAFBDN
TAF
KBDN 271720Z 2718/2818 35004KT P6SM SKC
     FM272000 33010G16KT P6SM SKC
     FM280600 VRB04KT P6SM SKC=

USA.gov is the U.S. government's official web portal to all federal, state and local government web resources and services.